Anch, Alaska
Current Conditions -  °F | °C
As of 9:58 PM on Tuesday 21 Oct 2014 (Local Time) from PAED Reporting Station
Clear Clear  
Wind Chill: 31°   Ceiling: Unl
Heat Index: 31°   Visibility: 10mi
Dew Point: 26°   Wind: 0mph
Humidity: 83%   Direction: NA
Pressure: 29.22"   Gusts: NA
Location:  61.2265°N, 149.62°W
Report Text: PAED 220558Z AUTO 00000KT 10SM CLR M01/M03 A2922 RMK AO2 SLP892 T10071033 10046 21018 55005 $
Loading
Personal Weather Stations






























Interactive Weather Map
Tropical Storm Tracking
New forecast layout! Learn more

10-Day Weather Forecast

Advertisements
Track Severe Weather on mobile